Time;durP1;ratioP1;P1;durP2;ratioP2;P2;SDS_P1;SDS_P2;PMS_P1;PMS_P2;Temp;Humidity;BMP_temperature;BMP_pressure;BME280_temperature;BME280_humidity;BME280_pressure;Samples;Min_cycle;Max_cycle;Signal;HPM_P1;HPM_P2
2024/04/03 00:04:44;;;;;;;4.00;2.07;;;;;;;;;;12916471;23;20414;-81
2024/04/03 00:09:47;;;;;;;2.27;1.97;;;;;;;;;;12914751;23;20814;-81
2024/04/03 00:14:51;;;;;;;3.35;1.80;;;;;;;;;;12914128;23;20395;-81
2024/04/03 00:19:53;;;;;;;2.35;2.15;;;;;;;;;;12914775;23;20430;-82
2024/04/03 00:24:56;;;;;;;3.20;1.90;;;;;;;;;;12915325;23;20376;-81
2024/04/03 00:30:00;;;;;;;3.70;2.00;;;;;;;;;;12914097;23;20929;-80
2024/04/03 00:35:03;;;;;;;2.83;2.15;;;;;;;;;;12913275;23;20685;-81
2024/04/03 00:40:07;;;;;;;3.60;1.90;;;;;;;;;;12914198;23;20368;-81
2024/04/03 00:45:11;;;;;;;2.40;2.20;;;;;;;;;;12913182;23;20364;-81
2024/04/03 00:50:13;;;;;;;4.47;2.80;;;;;;;;;;12913536;23;20414;-81
2024/04/03 00:55:16;;;;;;;4.87;3.00;;;;;;;;;;12913822;23;20365;-81
2024/04/03 01:00:20;;;;;;;4.68;2.95;;;;;;;;;;12912820;23;20369;-80
2024/04/03 01:05:22;;;;;;;5.82;3.00;;;;;;;;;;12913029;23;20458;-81
2024/04/03 01:10:26;;;;;;;4.18;3.38;;;;;;;;;;12914291;23;20486;-81
2024/04/03 01:15:30;;;;;;;4.13;3.30;;;;;;;;;;12913913;23;20364;-81
2024/04/03 01:20:32;;;;;;;3.78;3.20;;;;;;;;;;12912989;23;20368;-81
2024/04/03 01:25:36;;;;;;;3.70;3.10;;;;;;;;;;12914262;23;20458;-80
2024/04/03 01:30:39;;;;;;;4.03;3.47;;;;;;;;;;12912761;23;20384;-81
2024/04/03 01:35:41;;;;;;;4.40;3.50;;;;;;;;;;12914003;23;20372;-81
2024/04/03 01:40:45;;;;;;;3.93;3.30;;;;;;;;;;12912204;23;20426;-80
2024/04/03 01:45:56;;;;;;;4.38;3.28;;;;;;;;;;12913431;23;20369;-81
2024/04/03 01:50:59;;;;;;;4.25;3.40;;;;;;;;;;12913772;23;20384;-80
2024/04/03 01:56:02;;;;;;;4.20;3.45;;;;;;;;;;12913515;23;20399;-80
2024/04/03 02:01:05;;;;;;;4.63;3.45;;;;;;;;;;12909070;22;20380;-80
2024/04/03 02:06:08;;;;;;;4.20;3.33;;;;;;;;;;12909705;23;20364;-80
2024/04/03 02:11:11;;;;;;;3.67;3.17;;;;;;;;;;12911336;23;20380;-80
2024/04/03 02:16:14;;;;;;;4.05;3.15;;;;;;;;;;12911520;23;21378;-81
2024/04/03 02:21:17;;;;;;;3.58;2.92;;;;;;;;;;12913200;23;20364;-80
2024/04/03 02:26:20;;;;;;;3.97;3.40;;;;;;;;;;12912381;23;20418;-80
2024/04/03 02:31:23;;;;;;;4.32;3.15;;;;;;;;;;12912830;23;20871;-80
2024/04/03 02:36:26;;;;;;;4.53;3.25;;;;;;;;;;12912805;23;20395;-81
2024/04/03 02:41:29;;;;;;;4.97;3.38;;;;;;;;;;12912613;23;20446;-81
2024/04/03 02:46:32;;;;;;;6.47;4.07;;;;;;;;;;12912695;23;20422;-80
2024/04/03 02:51:34;;;;;;;5.38;3.75;;;;;;;;;;12911811;23;20442;-80
2024/04/03 02:56:38;;;;;;;5.38;3.60;;;;;;;;;;12911855;23;20732;-80
2024/04/03 03:01:41;;;;;;;5.22;3.53;;;;;;;;;;12911890;23;20372;-80
2024/04/03 03:06:43;;;;;;;4.83;3.50;;;;;;;;;;12912365;23;20365;-81
2024/04/03 03:11:47;;;;;;;5.33;3.20;;;;;;;;;;12915203;23;20384;-80
2024/04/03 03:16:50;;;;;;;5.65;3.47;;;;;;;;;;12916214;23;20395;-80
2024/04/03 03:21:52;;;;;;;6.40;3.40;;;;;;;;;;12916058;23;20360;-80
2024/04/03 03:26:56;;;;;;;6.00;3.20;;;;;;;;;;12914657;23;20868;-80
2024/04/03 03:31:59;;;;;;;5.10;3.80;;;;;;;;;;12912270;23;20380;-80
2024/04/03 03:37:01;;;;;;;6.03;3.40;;;;;;;;;;12913976;23;20368;-80
2024/04/03 03:42:05;;;;;;;3.58;3.10;;;;;;;;;;12914806;23;20414;-80
2024/04/03 03:47:08;;;;;;;6.13;3.55;;;;;;;;;;12913846;23;20376;-81
2024/04/03 03:57:31;;;;;;;6.22;3.80;;;;;;;;;;12935218;23;20379;-81
2024/04/03 04:02:34;;;;;;;5.30;3.60;;;;;;;;;;12915409;23;20368;-81
2024/04/03 04:07:36;;;;;;;4.22;3.00;;;;;;;;;;12914185;23;20430;-80
2024/04/03 04:12:42;;;;;;;4.70;3.72;;;;;;;;;;12914999;23;20435;-81
2024/04/03 04:17:44;;;;;;;5.05;3.83;;;;;;;;;;12914800;23;20411;-80
2024/04/03 04:22:47;;;;;;;4.53;3.60;;;;;;;;;;12935373;23;20808;-80
2024/04/03 04:27:51;;;;;;;4.60;3.47;;;;;;;;;;12913632;23;20419;-81
2024/04/03 04:32:54;;;;;;;5.93;3.67;;;;;;;;;;12913282;23;20406;-81
2024/04/03 04:37:57;;;;;;;8.57;3.50;;;;;;;;;;12911400;23;21211;-80
2024/04/03 04:43:01;;;;;;;6.20;3.80;;;;;;;;;;12913614;23;20697;-80
2024/04/03 04:48:04;;;;;;;5.75;3.63;;;;;;;;;;12914507;23;20391;-80
2024/04/03 04:53:06;;;;;;;4.60;3.80;;;;;;;;;;12912446;23;20693;-80
2024/04/03 04:58:10;;;;;;;7.10;4.10;;;;;;;;;;12913860;23;20364;-81
2024/04/03 05:03:12;;;;;;;5.63;4.03;;;;;;;;;;12913864;23;20915;-80
2024/04/03 05:08:18;;;;;;;4.97;4.30;;;;;;;;;;12912857;23;20368;-79
2024/04/03 05:13:22;;;;;;;9.07;4.87;;;;;;;;;;12911631;23;20411;-80
2024/04/03 05:18:24;;;;;;;7.07;4.90;;;;;;;;;;12912034;23;20368;-80
2024/04/03 05:23:26;;;;;;;6.78;4.38;;;;;;;;;;12911041;23;20368;-80
2024/04/03 05:28:31;;;;;;;6.90;4.90;;;;;;;;;;12911460;23;20438;-81
2024/04/03 05:33:35;;;;;;;6.40;4.35;;;;;;;;;;12911837;23;20368;-80
2024/04/03 05:38:38;;;;;;;7.25;5.18;;;;;;;;;;12911702;23;20896;-81
2024/04/03 05:43:42;;;;;;;6.65;3.83;;;;;;;;;;12910114;23;20419;-82
2024/04/03 05:48:44;;;;;;;7.07;4.03;;;;;;;;;;12909661;23;20380;-80
2024/04/03 05:53:47;;;;;;;6.20;4.60;;;;;;;;;;12907100;23;20364;-80
2024/04/03 05:58:54;;;;;;;9.17;6.03;;;;;;;;;;12931031;23;20479;-81
2024/04/03 06:03:57;;;;;;;7.22;5.05;;;;;;;;;;12930782;23;20828;-82
2024/04/03 06:09:00;;;;;;;6.53;4.60;;;;;;;;;;12909518;23;20748;-80
2024/04/03 06:14:04;;;;;;;6.47;4.30;;;;;;;;;;12911031;23;20372;-80
2024/04/03 06:19:09;;;;;;;6.57;4.10;;;;;;;;;;12912458;23;20462;-80
2024/04/03 06:24:12;;;;;;;9.85;4.88;;;;;;;;;;12913167;23;20434;-80
2024/04/03 06:29:18;;;;;;;6.35;4.03;;;;;;;;;;12913920;23;20392;-81
2024/04/03 06:34:20;;;;;;;7.63;4.38;;;;;;;;;;12912898;23;20372;-81
2024/04/03 06:39:23;;;;;;;6.07;4.27;;;;;;;;;;12914178;23;20906;-81
2024/04/03 06:44:27;;;;;;;9.83;5.20;;;;;;;;;;12916819;23;20391;-81
2024/04/03 06:49:32;;;;;;;10.30;4.20;;;;;;;;;;12916506;23;20383;-81
2024/04/03 06:54:35;;;;;;;7.80;4.60;;;;;;;;;;12916209;23;20425;-81
2024/04/03 06:59:39;;;;;;;17.65;6.03;;;;;;;;;;12917126;23;20368;-79
2024/04/03 07:04:41;;;;;;;8.60;5.50;;;;;;;;;;12916931;23;20368;-81
2024/04/03 07:09:44;;;;;;;7.90;4.75;;;;;;;;;;12914576;23;20422;-81
2024/04/03 07:14:48;;;;;;;10.98;4.85;;;;;;;;;;12917086;23;20743;-81
2024/04/03 07:19:50;;;;;;;11.67;5.37;;;;;;;;;;12916983;23;20740;-81
2024/04/03 07:24:52;;;;;;;13.47;6.50;;;;;;;;;;12916107;23;20436;-80
2024/04/03 07:29:56;;;;;;;8.97;4.93;;;;;;;;;;12916184;23;20442;-79
2024/04/03 07:34:59;;;;;;;7.50;5.70;;;;;;;;;;12915155;23;20364;-80
2024/04/03 07:40:04;;;;;;;10.35;5.53;;;;;;;;;;12917272;23;20899;-81
2024/04/03 07:45:09;;;;;;;10.53;6.67;;;;;;;;;;12915773;23;20988;-81
2024/04/03 07:50:11;;;;;;;7.13;4.80;;;;;;;;;;12917061;23;20380;-81
2024/04/03 07:55:15;;;;;;;7.22;5.35;;;;;;;;;;12915611;23;20372;-80
2024/04/03 08:00:19;;;;;;;7.72;5.75;;;;;;;;;;12936413;23;20368;-80
2024/04/03 08:05:22;;;;;;;9.60;5.00;;;;;;;;;;12916585;23;20361;-80
2024/04/03 08:10:25;;;;;;;6.25;4.75;;;;;;;;;;12916259;23;20388;-81
2024/04/03 08:15:29;;;;;;;7.00;5.10;;;;;;;;;;12914598;23;20365;-81
2024/04/03 08:20:31;;;;;;;7.90;5.73;;;;;;;;;;12915443;23;20821;-81
2024/04/03 08:25:37;;;;;;;7.30;5.40;;;;;;;;;;12915059;23;20369;-81
2024/04/03 08:30:40;;;;;;;7.03;4.40;;;;;;;;;;12936260;23;20771;-80
2024/04/03 08:35:43;;;;;;;7.97;3.83;;;;;;;;;;12915659;23;20364;-82
2024/04/03 08:40:54;;;;;;;5.78;3.35;;;;;;;;;;12915013;23;20686;-81
2024/04/03 08:45:58;;;;;;;5.80;3.37;;;;;;;;;;12914670;23;20434;-80
2024/04/03 08:51:01;;;;;;;5.30;3.10;;;;;;;;;;12915586;23;20416;-81
2024/04/03 08:56:03;;;;;;;3.35;2.67;;;;;;;;;;12915129;23;20744;-81
2024/04/03 09:01:09;;;;;;;4.32;2.67;;;;;;;;;;12915026;23;20369;-81
2024/04/03 09:06:11;;;;;;;3.65;2.67;;;;;;;;;;12914947;23;20365;-81
2024/04/03 09:11:24;;;;;;;5.23;2.83;;;;;;;;;;12913827;23;20430;-81
2024/04/03 09:16:27;;;;;;;6.07;2.77;;;;;;;;;;12914425;23;20434;-81
2024/04/03 09:21:30;;;;;;;4.87;3.37;;;;;;;;;;12913683;23;20360;-80
2024/04/03 09:26:32;;;;;;;5.27;3.00;;;;;;;;;;12914234;23;20372;-81
2024/04/03 09:31:36;;;;;;;4.27;2.87;;;;;;;;;;12936022;22;20955;-81
2024/04/03 09:36:40;;;;;;;4.70;2.70;;;;;;;;;;12975619;22;20424;-81
2024/04/03 09:41:44;;;;;;;4.78;2.70;;;;;;;;;;12975779;22;20370;-81
2024/04/03 09:46:54;;;;;;;5.88;2.95;;;;;;;;;;12976883;22;20371;-81
2024/04/03 09:51:56;;;;;;;4.38;2.63;;;;;;;;;;12977547;22;20436;-81
2024/04/03 09:57:01;;;;;;;4.90;2.50;;;;;;;;;;12975299;22;21601;-81
2024/04/03 10:02:05;;;;;;;4.05;2.72;;;;;;;;;;12976744;22;20393;-81
2024/04/03 10:07:16;;;;;;;5.43;2.80;;;;;;;;;;12976643;22;20374;-80
2024/04/03 10:12:22;;;;;;;3.65;2.72;;;;;;;;;;12977113;22;20769;-82
2024/04/03 10:17:26;;;;;;;5.05;2.80;;;;;;;;;;12978001;22;20460;-81
2024/04/03 10:22:30;;;;;;;7.20;3.38;;;;;;;;;;12981002;22;20732;-81
2024/04/03 10:27:32;;;;;;;6.10;2.75;;;;;;;;;;12980976;22;20366;-82
2024/04/03 10:32:36;;;;;;;4.97;2.67;;;;;;;;;;12980405;22;20375;-81
2024/04/03 10:37:39;;;;;;;8.77;3.10;;;;;;;;;;12981293;22;20366;-81
2024/04/03 10:42:41;;;;;;;6.07;3.00;;;;;;;;;;12980925;22;20440;-81
2024/04/03 10:47:45;;;;;;;5.47;2.75;;;;;;;;;;12981457;22;20362;-81
2024/04/03 10:52:48;;;;;;;5.57;2.97;;;;;;;;;;12980798;22;20842;-81
2024/04/03 10:57:52;;;;;;;4.90;2.90;;;;;;;;;;12980272;22;20366;-81
2024/04/03 11:02:57;;;;;;;4.57;2.28;;;;;;;;;;12980020;22;20416;-81
2024/04/03 11:08:01;;;;;;;9.27;3.37;;;;;;;;;;12979539;22;20464;-81
2024/04/03 11:13:04;;;;;;;5.57;2.30;;;;;;;;;;12980671;22;20378;-80
2024/04/03 11:18:08;;;;;;;4.93;1.65;;;;;;;;;;12980303;22;20366;-79
2024/04/03 11:23:11;;;;;;;5.07;2.60;;;;;;;;;;12979856;22;20366;-80
2024/04/03 11:28:14;;;;;;;5.80;2.60;;;;;;;;;;12978739;22;20432;-79
2024/04/03 11:33:17;;;;;;;6.83;3.00;;;;;;;;;;12979726;22;20382;-79
2024/04/03 11:38:20;;;;;;;7.32;3.30;;;;;;;;;;12980188;22;20367;-80
2024/04/03 11:43:23;;;;;;;6.43;2.85;;;;;;;;;;13000687;22;20436;-79
2024/04/03 11:48:26;;;;;;;4.25;2.80;;;;;;;;;;12981292;22;20417;-79
2024/04/03 11:53:29;;;;;;;5.45;3.10;;;;;;;;;;12978839;22;20382;-79
2024/04/03 11:58:31;;;;;;;8.38;3.67;;;;;;;;;;12999915;22;20412;-79
2024/04/03 12:03:35;;;;;;;8.23;3.30;;;;;;;;;;12978570;22;20362;-79
2024/04/03 12:08:38;;;;;;;5.72;3.50;;;;;;;;;;12976889;22;20366;-79
2024/04/03 12:13:40;;;;;;;6.72;4.00;;;;;;;;;;12976847;22;20379;-80
2024/04/03 12:18:50;;;;;;;10.13;5.25;;;;;;;;;;12975326;22;20363;-80
2024/04/03 12:23:52;;;;;;;5.90;3.40;;;;;;;;;;12974498;22;20366;-79
2024/04/03 12:28:54;;;;;;;4.97;3.00;;;;;;;;;;12975905;22;20731;-80
2024/04/03 12:33:58;;;;;;;4.95;2.40;;;;;;;;;;12974621;22;20394;-80
2024/04/03 12:39:01;;;;;;;5.82;3.00;;;;;;;;;;12975467;22;20359;-79
2024/04/03 12:44:03;;;;;;;4.70;2.45;;;;;;;;;;12974698;22;20363;-79
2024/04/03 12:49:08;;;;;;;5.70;2.53;;;;;;;;;;12997221;22;20848;-79
2024/04/03 12:54:10;;;;;;;4.80;2.40;;;;;;;;;;12969635;22;20436;-78
2024/04/03 12:59:13;;;;;;;4.50;1.92;;;;;;;;;;12970610;22;20809;-79
2024/04/03 13:04:18;;;;;;;5.20;2.65;;;;;;;;;;12974345;22;20420;-80
2024/04/03 13:09:20;;;;;;;4.40;1.83;;;;;;;;;;12972785;22;20363;-80
2024/04/03 13:14:23;;;;;;;3.60;1.10;;;;;;;;;;12973108;22;20375;-80
2024/04/03 13:19:27;;;;;;;4.27;1.23;;;;;;;;;;12968068;22;20371;-79
2024/04/03 13:24:29;;;;;;;2.72;1.40;;;;;;;;;;12972738;22;20830;-80
2024/04/03 13:29:32;;;;;;;2.92;1.40;;;;;;;;;;12972399;22;20401;-78
2024/04/03 13:34:36;;;;;;;2.27;1.23;;;;;;;;;;12972276;22;20382;-80
2024/04/03 13:39:39;;;;;;;2.47;1.20;;;;;;;;;;12960752;22;20378;-80
2024/04/03 13:44:41;;;;;;;3.55;1.30;;;;;;;;;;12969459;22;20366;-84
2024/04/03 13:49:46;;;;;;;3.15;1.42;;;;;;;;;;12989399;22;20366;-82
2024/04/03 13:54:48;;;;;;;2.08;1.30;;;;;;;;;;12967940;22;20677;-82
2024/04/03 13:59:53;;;;;;;4.30;2.30;;;;;;;;;;12972442;22;20363;-82
2024/04/03 14:04:57;;;;;;;3.97;1.50;;;;;;;;;;12969898;22;20412;-83
2024/04/03 14:10:02;;;;;;;3.70;1.67;;;;;;;;;;12970018;22;20362;-81
2024/04/03 14:15:05;;;;;;;2.55;1.48;;;;;;;;;;12963863;22;20386;-82
2024/04/03 14:20:10;;;;;;;4.55;1.83;;;;;;;;;;12938916;22;20389;-82
2024/04/03 14:25:12;;;;;;;3.67;1.70;;;;;;;;;;12988794;22;20359;-82
2024/04/03 14:30:15;;;;;;;3.83;1.90;;;;;;;;;;12966175;22;20378;-81
2024/04/03 14:35:19;;;;;;;2.65;1.40;;;;;;;;;;12966362;22;20416;-81
2024/04/03 14:40:21;;;;;;;3.60;1.40;;;;;;;;;;12966028;22;20375;-82
2024/04/03 14:45:24;;;;;;;3.50;1.52;;;;;;;;;;12983697;22;20382;-82
2024/04/03 14:50:28;;;;;;;6.00;3.37;;;;;;;;;;12967126;22;20371;-81
2024/04/03 14:55:31;;;;;;;3.50;2.07;;;;;;;;;;12966561;22;20409;-81
2024/04/03 15:00:33;;;;;;;8.68;4.20;;;;;;;;;;12965208;22;20384;-81
2024/04/03 15:05:39;;;;;;;2.90;1.20;;;;;;;;;;12989318;22;20458;-80
2024/04/03 15:10:42;;;;;;;6.55;1.40;;;;;;;;;;12969093;22;20366;-81
2024/04/03 15:15:46;;;;;;;3.53;1.10;;;;;;;;;;12969969;22;20383;-81
2024/04/03 15:20:49;;;;;;;0.80;0.77;;;;;;;;;;12969170;22;20428;-81
2024/04/03 15:25:54;;;;;;;2.03;0.80;;;;;;;;;;12968986;22;20476;-81
2024/04/03 15:30:57;;;;;;;2.95;0.90;;;;;;;;;;12964822;22;20397;-81
2024/04/03 15:36:01;;;;;;;2.63;1.27;;;;;;;;;;12963718;22;20382;-82
2024/04/03 15:41:04;;;;;;;4.53;1.08;;;;;;;;;;12963016;22;20687;-81
2024/04/03 15:46:06;;;;;;;4.10;1.10;;;;;;;;;;12964594;22;20370;-82
2024/04/03 15:51:10;;;;;;;4.50;1.65;;;;;;;;;;12966792;22;20393;-82
2024/04/03 15:56:14;;;;;;;2.97;1.30;;;;;;;;;;12964480;22;20391;-82
2024/04/03 16:01:17;;;;;;;5.35;1.40;;;;;;;;;;12965287;22;20909;-82
2024/04/03 16:06:23;;;;;;;2.25;1.20;;;;;;;;;;12965594;22;20378;-82
2024/04/03 16:11:25;;;;;;;5.15;2.65;;;;;;;;;;12964518;22;20405;-81
2024/04/03 16:16:28;;;;;;;5.35;2.30;;;;;;;;;;12966825;22;20436;-81
2024/04/03 16:21:32;;;;;;;5.00;2.27;;;;;;;;;;12967651;22;20378;-82
2024/04/03 16:26:34;;;;;;;4.47;1.70;;;;;;;;;;12984586;22;20966;-81
2024/04/03 16:31:38;;;;;;;4.90;2.00;;;;;;;;;;12965258;22;20366;-82
2024/04/03 16:36:42;;;;;;;7.80;1.70;;;;;;;;;;12990253;22;21015;-81
2024/04/03 16:41:45;;;;;;;6.00;2.38;;;;;;;;;;12965430;22;20420;-81
2024/04/03 16:46:47;;;;;;;3.20;1.70;;;;;;;;;;12965701;22;20391;-81
2024/04/03 16:51:51;;;;;;;7.47;3.85;;;;;;;;;;12966637;22;20408;-81
2024/04/03 16:56:53;;;;;;;6.13;2.45;;;;;;;;;;12972656;22;20374;-81
2024/04/03 17:01:56;;;;;;;5.23;2.23;;;;;;;;;;12976462;22;20370;-81
2024/04/03 17:07:00;;;;;;;6.03;3.03;;;;;;;;;;12967742;22;21203;-81
2024/04/03 17:12:04;;;;;;;5.03;2.60;;;;;;;;;;12965854;22;21193;-81
2024/04/03 17:17:06;;;;;;;7.23;2.80;;;;;;;;;;12965055;22;20382;-80
2024/04/03 17:22:10;;;;;;;3.45;2.65;;;;;;;;;;12966192;22;20723;-80
2024/04/03 17:27:13;;;;;;;8.77;5.10;;;;;;;;;;12960778;22;20432;-79
2024/04/03 17:32:15;;;;;;;5.27;2.70;;;;;;;;;;12968251;22;20488;-79
2024/04/03 17:37:19;;;;;;;4.28;2.60;;;;;;;;;;12967513;22;20429;-78
2024/04/03 17:42:21;;;;;;;5.47;3.60;;;;;;;;;;12959437;22;20436;-78
2024/04/03 17:47:24;;;;;;;10.13;5.60;;;;;;;;;;12962689;22;20465;-79
2024/04/03 17:52:29;;;;;;;14.10;6.73;;;;;;;;;;12962201;22;20417;-79
2024/04/03 17:57:33;;;;;;;5.65;3.10;;;;;;;;;;12962269;22;20447;-78
2024/04/03 18:02:36;;;;;;;5.68;3.40;;;;;;;;;;12964199;22;20382;-78
2024/04/03 18:07:41;;;;;;;8.02;3.38;;;;;;;;;;12964138;22;20374;-78
2024/04/03 18:12:44;;;;;;;7.40;3.20;;;;;;;;;;12959949;22;20382;-78
2024/04/03 18:17:46;;;;;;;6.43;3.50;;;;;;;;;;12962607;22;20448;-77
2024/04/03 18:22:50;;;;;;;4.55;2.80;;;;;;;;;;12962446;22;20851;-78
2024/04/03 18:27:52;;;;;;;8.40;3.63;;;;;;;;;;12958759;22;20379;-78
2024/04/03 18:32:57;;;;;;;8.90;3.67;;;;;;;;;;12961135;22;21051;-78
2024/04/03 18:38:00;;;;;;;5.15;3.47;;;;;;;;;;12961212;22;20459;-75
2024/04/03 18:43:03;;;;;;;4.78;3.28;;;;;;;;;;12968416;22;20367;-73
2024/04/03 18:48:06;;;;;;;7.75;3.50;;;;;;;;;;12967041;22;20374;-76
2024/04/03 18:53:10;;;;;;;6.70;4.20;;;;;;;;;;12964563;22;20484;-77
2024/04/03 18:58:12;;;;;;;5.70;3.97;;;;;;;;;;12969702;22;21165;-77
2024/04/03 19:03:15;;;;;;;7.85;4.72;;;;;;;;;;12963300;22;20386;-78
2024/04/03 19:08:19;;;;;;;7.97;4.78;;;;;;;;;;12959038;22;20432;-77
2024/04/03 19:13:21;;;;;;;7.57;5.07;;;;;;;;;;12963470;22;20391;-77
2024/04/03 19:18:24;;;;;;;8.40;4.93;;;;;;;;;;12964955;22;20425;-77
2024/04/03 19:23:28;;;;;;;13.90;6.50;;;;;;;;;;12965079;22;20436;-77
2024/04/03 19:28:31;;;;;;;10.40;6.70;;;;;;;;;;12963048;22;20477;-77
2024/04/03 19:33:35;;;;;;;20.20;8.10;;;;;;;;;;12962270;22;21179;-77
2024/04/03 19:38:39;;;;;;;14.87;8.50;;;;;;;;;;12963027;22;20375;-77
2024/04/03 19:43:42;;;;;;;12.05;7.55;;;;;;;;;;12965487;22;20753;-77
2024/04/03 19:48:44;;;;;;;11.63;7.03;;;;;;;;;;12964132;22;20367;-78
2024/04/03 19:53:48;;;;;;;10.70;7.00;;;;;;;;;;12967504;22;20387;-78
2024/04/03 19:58:50;;;;;;;11.83;7.07;;;;;;;;;;12965991;22;20405;-78
2024/04/03 20:03:53;;;;;;;11.57;6.67;;;;;;;;;;12966591;22;20685;-78
2024/04/03 20:08:57;;;;;;;11.05;6.40;;;;;;;;;;12968855;22;20379;-79
2024/04/03 20:13:59;;;;;;;9.73;6.50;;;;;;;;;;12967533;22;20938;-78
2024/04/03 20:19:01;;;;;;;9.32;6.07;;;;;;;;;;12968291;22;20431;-78
2024/04/03 20:24:06;;;;;;;9.15;6.05;;;;;;;;;;12969461;22;20522;-78
2024/04/03 20:29:09;;;;;;;9.43;6.82;;;;;;;;;;12968777;22;20404;-77
2024/04/03 20:34:13;;;;;;;8.43;6.53;;;;;;;;;;12967163;22;20383;-78
2024/04/03 20:39:17;;;;;;;11.63;6.83;;;;;;;;;;12969184;22;20400;-79
2024/04/03 20:44:19;;;;;;;10.63;6.80;;;;;;;;;;12969497;22;20397;-78
2024/04/03 20:49:22;;;;;;;10.35;7.18;;;;;;;;;;12971065;22;20923;-78
2024/04/03 20:54:25;;;;;;;11.37;7.80;;;;;;;;;;12967730;22;20387;-80
2024/04/03 20:59:28;;;;;;;11.88;7.97;;;;;;;;;;12966345;22;20382;-80
2024/04/03 21:04:32;;;;;;;10.10;7.10;;;;;;;;;;12969947;22;20440;-78
2024/04/03 21:09:36;;;;;;;12.03;7.27;;;;;;;;;;12969386;22;20428;-78
2024/04/03 21:14:39;;;;;;;12.07;7.80;;;;;;;;;;12967878;22;20394;-76
2024/04/03 21:19:41;;;;;;;9.77;7.43;;;;;;;;;;12970551;22;20412;-79
2024/04/03 21:24:45;;;;;;;10.93;7.38;;;;;;;;;;12975530;22;20367;-76
2024/04/03 21:29:51;;;;;;;10.40;7.38;;;;;;;;;;12975356;22;20363;-77
2024/04/03 21:34:53;;;;;;;10.20;7.32;;;;;;;;;;12976327;22;20382;-77
2024/04/03 21:39:57;;;;;;;15.23;7.60;;;;;;;;;;12977228;22;20704;-78
2024/04/03 21:45:00;;;;;;;9.68;7.28;;;;;;;;;;12976369;22;20365;-77
2024/04/03 21:50:02;;;;;;;12.82;7.82;;;;;;;;;;12976886;22;20363;-77
2024/04/03 21:55:08;;;;;;;12.40;7.80;;;;;;;;;;12975102;22;20382;-79
2024/04/03 22:00:13;;;;;;;9.93;7.70;;;;;;;;;;12974901;22;20359;-79
2024/04/03 22:05:16;;;;;;;11.68;7.72;;;;;;;;;;12975038;22;20366;-78
2024/04/03 22:10:20;;;;;;;12.18;7.80;;;;;;;;;;12975680;22;20363;-78
2024/04/03 22:15:23;;;;;;;9.70;7.28;;;;;;;;;;12975696;22;20959;-76
2024/04/03 22:20:26;;;;;;;11.82;7.25;;;;;;;;;;12979015;22;20408;-76
2024/04/03 22:25:29;;;;;;;10.93;6.80;;;;;;;;;;12981077;22;20838;-76
2024/04/03 22:30:33;;;;;;;14.23;7.40;;;;;;;;;;12980046;22;20423;-76
2024/04/03 22:35:35;;;;;;;12.52;7.10;;;;;;;;;;12979912;22;20436;-77
2024/04/03 22:40:39;;;;;;;13.57;7.05;;;;;;;;;;12980128;22;20424;-76
2024/04/03 22:45:41;;;;;;;10.20;6.60;;;;;;;;;;12980696;22;20366;-76
2024/04/03 22:50:44;;;;;;;12.05;6.45;;;;;;;;;;12979829;22;20827;-76
2024/04/03 22:55:48;;;;;;;10.05;7.00;;;;;;;;;;12980031;22;20687;-76
2024/04/03 23:00:50;;;;;;;9.40;6.77;;;;;;;;;;12978424;22;20523;-76
2024/04/03 23:05:57;;;;;;;8.60;6.20;;;;;;;;;;12978991;22;20463;-76
2024/04/03 23:11:00;;;;;;;9.15;6.78;;;;;;;;;;12978167;22;20475;-79
2024/04/03 23:16:04;;;;;;;12.18;7.03;;;;;;;;;;12978615;22;20439;-76
2024/04/03 23:21:06;;;;;;;12.70;6.75;;;;;;;;;;12979960;22;20435;-76
2024/04/03 23:26:10;;;;;;;8.98;6.50;;;;;;;;;;12979898;22;20367;-76
2024/04/03 23:31:12;;;;;;;11.48;7.40;;;;;;;;;;12978379;22;20371;-76
2024/04/03 23:36:14;;;;;;;10.88;6.80;;;;;;;;;;12978542;22;20440;-76
2024/04/03 23:41:18;;;;;;;8.93;6.97;;;;;;;;;;12977974;22;20839;-76
2024/04/03 23:46:22;;;;;;;10.48;7.15;;;;;;;;;;12978647;22;20371;-76
2024/04/03 23:51:24;;;;;;;10.20;6.97;;;;;;;;;;12978834;22;20359;-77
2024/04/03 23:56:28;;;;;;;9.90;7.32;;;;;;;;;;12975052;22;20383;-76
